Time;durP1;ratioP1;P1;durP2;ratioP2;P2;SDS_P1;SDS_P2;PMS_P1;PMS_P2;Temp;Humidity;BMP_temperature;BMP_pressure;BME280_temperature;BME280_humidity;BME280_pressure;Samples;Min_cycle;Max_cycle;Signal;HPM_P1;HPM_P2
2021/10/27 00:02:15;;;;;;;3.40;2.00;;;;;;;;;;4992681;28;20921;-80
2021/10/27 00:04:41;;;;;;;1.97;1.57;;;;;;;;;;4996854;28;20419;-79
2021/10/27 00:07:08;;;;;;;2.43;1.50;;;;;;;;;;4995912;28;20517;-79
2021/10/27 00:09:34;;;;;;;3.73;1.40;;;;;;;;;;4993993;28;20507;-79
2021/10/27 00:12:00;;;;;;;3.20;1.77;;;;;;;;;;4993591;28;20470;-81
2021/10/27 00:14:26;;;;;;;2.77;1.60;;;;;;;;;;4976664;28;20580;-80
2021/10/27 00:16:52;;;;;;;8.90;2.97;;;;;;;;;;4994019;28;20422;-80
2021/10/27 00:19:18;;;;;;;2.23;1.37;;;;;;;;;;4994227;28;20422;-79
2021/10/27 00:21:44;;;;;;;4.43;1.60;;;;;;;;;;4992353;28;20493;-80
2021/10/27 00:24:11;;;;;;;1.50;1.37;;;;;;;;;;4992625;28;20934;-81
2021/10/27 00:26:37;;;;;;;5.73;1.60;;;;;;;;;;4992866;28;20557;-81
2021/10/27 00:29:03;;;;;;;1.70;1.00;;;;;;;;;;4993958;28;20423;-78
2021/10/27 00:31:29;;;;;;;1.30;1.10;;;;;;;;;;4993433;28;20454;-79
2021/10/27 00:33:55;;;;;;;2.70;1.60;;;;;;;;;;4992449;28;20470;-78
2021/10/27 00:36:21;;;;;;;2.27;1.70;;;;;;;;;;4992531;28;20446;-81
2021/10/27 00:38:47;;;;;;;3.70;1.67;;;;;;;;;;4976460;28;20915;-81
2021/10/27 00:41:13;;;;;;;3.10;2.43;;;;;;;;;;4992177;28;20411;-79
2021/10/27 00:43:40;;;;;;;3.20;1.83;;;;;;;;;;4996944;28;20416;-80
2021/10/27 00:46:06;;;;;;;3.50;1.70;;;;;;;;;;4997751;28;20418;-79
2021/10/27 00:48:34;;;;;;;1.77;1.33;;;;;;;;;;4997802;28;20406;-79
2021/10/27 00:51:00;;;;;;;2.10;1.67;;;;;;;;;;4996404;28;20494;-78
2021/10/27 00:53:26;;;;;;;3.00;1.70;;;;;;;;;;4997539;28;20454;-80
2021/10/27 00:55:53;;;;;;;1.50;1.33;;;;;;;;;;4997688;28;20902;-81
2021/10/27 00:58:19;;;;;;;1.73;1.63;;;;;;;;;;4997280;28;20414;-80
2021/10/27 01:00:46;;;;;;;1.77;1.57;;;;;;;;;;4997732;28;20393;-80
2021/10/27 01:03:12;;;;;;;1.70;1.20;;;;;;;;;;4996035;28;20431;-79
2021/10/27 01:05:38;;;;;;;2.37;1.70;;;;;;;;;;4997475;28;20429;-79
2021/10/27 01:08:04;;;;;;;3.40;1.80;;;;;;;;;;4996093;28;20434;-79
2021/10/27 01:10:30;;;;;;;3.23;1.60;;;;;;;;;;4997136;28;20422;-81
2021/10/27 01:12:56;;;;;;;6.70;1.83;;;;;;;;;;4995695;28;20452;-81
2021/10/27 01:15:22;;;;;;;3.00;1.50;;;;;;;;;;4997235;28;20462;-79
2021/10/27 01:17:48;;;;;;;2.10;1.90;;;;;;;;;;4997245;28;20417;-81
2021/10/27 01:20:14;;;;;;;4.33;2.10;;;;;;;;;;4995792;28;20833;-78
2021/10/27 01:22:41;;;;;;;3.07;1.77;;;;;;;;;;4996675;28;20441;-80
2021/10/27 01:25:09;;;;;;;2.23;1.30;;;;;;;;;;4979762;28;20967;-81
2021/10/27 01:27:43;;;;;;;2.20;1.40;;;;;;;;;;4996953;28;20414;-80
2021/10/27 01:30:16;;;;;;;3.37;1.90;;;;;;;;;;4995873;28;20776;-79
2021/10/27 01:32:43;;;;;;;1.30;1.20;;;;;;;;;;4995248;28;20446;-80
2021/10/27 01:35:09;;;;;;;3.00;1.60;;;;;;;;;;4996831;28;20457;-80
2021/10/27 01:37:37;;;;;;;1.50;1.40;;;;;;;;;;4996951;28;20558;-79
2021/10/27 01:40:03;;;;;;;5.90;1.73;;;;;;;;;;4995506;28;20907;-78
2021/10/27 01:42:29;;;;;;;1.90;1.57;;;;;;;;;;4996277;28;20509;-79
2021/10/27 01:44:55;;;;;;;3.00;1.77;;;;;;;;;;4979266;28;20423;-79
2021/10/27 01:47:21;;;;;;;2.90;1.60;;;;;;;;;;4996601;28;20426;-80
2021/10/27 01:49:48;;;;;;;2.73;1.60;;;;;;;;;;4995345;28;20521;-80
2021/10/27 01:52:14;;;;;;;2.83;1.50;;;;;;;;;;4978955;28;20480;-81
2021/10/27 01:54:40;;;;;;;2.33;1.50;;;;;;;;;;4995748;28;20556;-80
2021/10/27 01:57:07;;;;;;;1.63;1.53;;;;;;;;;;4995454;28;20414;-78
2021/10/27 01:59:34;;;;;;;3.00;1.67;;;;;;;;;;4996450;28;20406;-78
2021/10/27 02:02:00;;;;;;;5.47;1.90;;;;;;;;;;4994765;28;20435;-81
2021/10/27 02:04:26;;;;;;;1.97;1.30;;;;;;;;;;4995190;28;20422;-78
2021/10/27 02:06:52;;;;;;;2.70;1.37;;;;;;;;;;4996135;28;20418;-78
2021/10/27 02:09:18;;;;;;;2.10;1.40;;;;;;;;;;4994955;28;20806;-79
2021/10/27 02:11:45;;;;;;;2.33;1.50;;;;;;;;;;4994658;28;20441;-80
2021/10/27 02:14:14;;;;;;;1.60;1.40;;;;;;;;;;4996117;28;20473;-79
2021/10/27 02:16:40;;;;;;;6.70;1.73;;;;;;;;;;4994870;28;20786;-79
2021/10/27 02:19:08;;;;;;;2.13;1.37;;;;;;;;;;4995921;28;20427;-79
2021/10/27 02:21:34;;;;;;;1.30;1.20;;;;;;;;;;4994424;28;20815;-81
2021/10/27 02:24:00;;;;;;;1.70;1.60;;;;;;;;;;4994772;28;20513;-80
2021/10/27 02:26:26;;;;;;;1.30;1.20;;;;;;;;;;4996145;28;20426;-80
2021/10/27 02:28:52;;;;;;;2.50;1.17;;;;;;;;;;4978446;28;20473;-80
2021/10/27 02:31:18;;;;;;;2.43;1.20;;;;;;;;;;4995401;28;20827;-77
2021/10/27 02:33:44;;;;;;;1.40;1.30;;;;;;;;;;4994541;28;20843;-81
2021/10/27 02:36:10;;;;;;;1.40;1.10;;;;;;;;;;4995842;28;20423;-81
2021/10/27 02:38:37;;;;;;;3.00;1.23;;;;;;;;;;4994581;28;20415;-79
2021/10/27 02:41:04;;;;;;;1.67;1.03;;;;;;;;;;4994081;28;20419;-79
2021/10/27 02:43:30;;;;;;;4.80;1.10;;;;;;;;;;4995611;28;20463;-81
2021/10/27 02:45:56;;;;;;;2.50;1.33;;;;;;;;;;4995597;28;20759;-80
2021/10/27 02:48:22;;;;;;;1.10;0.90;;;;;;;;;;4995643;28;20501;-78
2021/10/27 02:50:48;;;;;;;1.13;1.03;;;;;;;;;;4994373;28;20498;-79
2021/10/27 02:53:14;;;;;;;1.20;1.10;;;;;;;;;;4995007;28;20518;-80
2021/10/27 02:55:40;;;;;;;2.73;1.13;;;;;;;;;;4995351;28;20758;-79
2021/10/27 02:58:06;;;;;;;1.57;1.10;;;;;;;;;;4994014;28;20497;-78
2021/10/27 03:00:32;;;;;;;2.40;1.27;;;;;;;;;;4994129;28;20502;-79
2021/10/27 03:02:58;;;;;;;1.30;1.20;;;;;;;;;;4993650;28;20533;-81
2021/10/27 03:05:24;;;;;;;1.90;1.33;;;;;;;;;;4993772;28;20480;-78
2021/10/27 03:07:51;;;;;;;2.60;1.30;;;;;;;;;;4993961;28;20418;-81
2021/10/27 03:10:17;;;;;;;1.57;1.30;;;;;;;;;;4995108;28;20414;-79
2021/10/27 03:12:43;;;;;;;6.13;1.27;;;;;;;;;;4994626;28;20446;-79
2021/10/27 03:15:09;;;;;;;1.40;1.30;;;;;;;;;;4993815;28;20470;-78
2021/10/27 03:17:35;;;;;;;2.45;1.45;;;;;;;;;;4995187;28;20747;-79
2021/10/27 03:20:01;;;;;;;1.43;1.20;;;;;;;;;;4995160;28;20190;-79
2021/10/27 03:22:27;;;;;;;9.15;1.40;;;;;;;;;;4994680;28;20465;-79
2021/10/27 03:24:53;;;;;;;1.90;1.43;;;;;;;;;;4977683;28;20214;-79
2021/10/27 03:27:19;;;;;;;1.50;1.30;;;;;;;;;;4977348;28;20840;-78
2021/10/27 03:29:46;;;;;;;1.60;1.50;;;;;;;;;;4994736;28;20418;-80
2021/10/27 03:32:13;;;;;;;2.22;1.55;;;;;;;;;;4994313;28;20462;-78
2021/10/27 03:34:39;;;;;;;2.60;1.40;;;;;;;;;;4994703;28;20215;-81
2021/10/27 03:37:06;;;;;;;1.83;1.73;;;;;;;;;;4994748;28;20403;-79
2021/10/27 03:39:32;;;;;;;2.67;1.52;;;;;;;;;;4994565;28;20172;-79
2021/10/27 03:41:58;;;;;;;2.90;1.47;;;;;;;;;;4992966;28;20683;-79
2021/10/27 03:44:24;;;;;;;2.58;1.42;;;;;;;;;;4994790;28;20418;-80
2021/10/27 03:46:51;;;;;;;1.80;1.60;;;;;;;;;;4994568;28;20179;-81
2021/10/27 03:49:18;;;;;;;3.58;1.98;;;;;;;;;;4994494;28;20683;-78
2021/10/27 03:51:44;;;;;;;1.88;1.63;;;;;;;;;;4993887;28;20227;-79
2021/10/27 03:54:10;;;;;;;3.00;2.00;;;;;;;;;;4994283;28;20214;-81
2021/10/27 03:56:36;;;;;;;2.20;2.00;;;;;;;;;;4994407;28;20258;-80
2021/10/27 03:59:02;;;;;;;2.65;1.90;;;;;;;;;;4994613;28;20226;-79
2021/10/27 04:01:29;;;;;;;2.35;1.95;;;;;;;;;;4994196;28;20257;-80
2021/10/27 04:03:55;;;;;;;4.95;2.20;;;;;;;;;;4994267;28;20211;-79
2021/10/27 04:06:21;;;;;;;4.43;2.45;;;;;;;;;;4993381;28;20187;-81
2021/10/27 04:08:47;;;;;;;4.93;2.88;;;;;;;;;;4994175;28;20183;-81
2021/10/27 04:11:12;;;;;;;4.63;2.10;;;;;;;;;;4993740;28;20519;-80
2021/10/27 04:13:40;;;;;;;3.87;2.40;;;;;;;;;;4994185;28;20419;-78
2021/10/27 04:16:06;;;;;;;3.05;2.50;;;;;;;;;;4976848;28;20418;-80
2021/10/27 04:18:32;;;;;;;4.10;2.30;;;;;;;;;;4993737;28;20202;-79
2021/10/27 04:20:58;;;;;;;4.07;2.53;;;;;;;;;;4993736;28;20183;-79
2021/10/27 04:23:24;;;;;;;4.53;2.95;;;;;;;;;;4994036;28;20191;-82
2021/10/27 04:25:50;;;;;;;5.35;2.88;;;;;;;;;;4993928;28;20186;-80
2021/10/27 04:28:16;;;;;;;3.90;2.60;;;;;;;;;;4992746;28;20262;-81
2021/10/27 04:30:42;;;;;;;3.90;3.27;;;;;;;;;;4992519;28;20449;-79
2021/10/27 04:33:19;;;;;;;5.63;3.23;;;;;;;;;;4993515;28;20445;-79
2021/10/27 04:35:45;;;;;;;3.65;3.10;;;;;;;;;;4993530;28;20454;-81
2021/10/27 04:38:13;;;;;;;3.43;3.00;;;;;;;;;;4992590;28;20221;-79
2021/10/27 04:40:40;;;;;;;6.70;3.30;;;;;;;;;;4993930;28;20737;-80
2021/10/27 04:43:06;;;;;;;3.45;2.83;;;;;;;;;;4992436;28;20227;-80
2021/10/27 04:45:32;;;;;;;3.63;2.80;;;;;;;;;;4992479;28;20651;-79
2021/10/27 04:47:58;;;;;;;7.05;3.60;;;;;;;;;;4993600;28;20406;-80
2021/10/27 04:50:24;;;;;;;3.60;3.30;;;;;;;;;;4993796;28;20180;-79
2021/10/27 04:52:50;;;;;;;8.00;3.50;;;;;;;;;;4975932;28;20461;-79
2021/10/27 04:55:16;;;;;;;4.47;3.67;;;;;;;;;;4993569;28;20207;-80
2021/10/27 04:57:42;;;;;;;5.97;3.50;;;;;;;;;;4993674;28;20415;-79
2021/10/27 05:00:08;;;;;;;7.28;3.70;;;;;;;;;;4992656;28;20422;-80
2021/10/27 05:02:34;;;;;;;10.55;4.60;;;;;;;;;;4993366;28;20195;-80
2021/10/27 05:05:00;;;;;;;5.83;4.10;;;;;;;;;;4993652;28;20186;-80
2021/10/27 05:07:26;;;;;;;9.80;4.32;;;;;;;;;;4992752;28;20481;-80
2021/10/27 05:09:52;;;;;;;6.90;3.72;;;;;;;;;;4976387;28;20188;-80
2021/10/27 05:12:19;;;;;;;6.53;5.00;;;;;;;;;;4991865;28;20211;-81
2021/10/27 05:14:45;;;;;;;5.50;4.32;;;;;;;;;;4993800;28;20465;-79
2021/10/27 05:17:12;;;;;;;5.90;4.30;;;;;;;;;;4993829;28;20250;-80
2021/10/27 05:19:39;;;;;;;6.47;4.03;;;;;;;;;;4993586;28;20187;-80
2021/10/27 05:22:06;;;;;;;4.75;4.10;;;;;;;;;;4993199;28;20242;-81
2021/10/27 05:24:32;;;;;;;6.60;4.07;;;;;;;;;;4992244;28;20196;-78
2021/10/27 05:26:58;;;;;;;4.57;3.80;;;;;;;;;;4976113;28;20242;-79
2021/10/27 05:29:24;;;;;;;6.63;4.35;;;;;;;;;;4994628;28;20895;-80
2021/10/27 05:31:50;;;;;;;6.32;4.55;;;;;;;;;;4996694;28;20218;-80
2021/10/27 05:34:16;;;;;;;6.65;4.35;;;;;;;;;;4995752;28;20246;-80
2021/10/27 05:36:43;;;;;;;5.77;4.97;;;;;;;;;;4996984;28;20183;-78
2021/10/27 05:39:11;;;;;;;6.60;4.60;;;;;;;;;;4996853;28;20411;-81
2021/10/27 05:41:40;;;;;;;4.75;3.75;;;;;;;;;;4996526;28;20190;-80
2021/10/27 05:44:06;;;;;;;6.47;4.60;;;;;;;;;;4996825;28;20171;-80
2021/10/27 05:46:32;;;;;;;5.53;4.60;;;;;;;;;;4996496;28;20203;-80
2021/10/27 05:49:05;;;;;;;9.50;4.77;;;;;;;;;;4996450;28;20187;-79
2021/10/27 05:54:58;;;;;;;6.85;4.70;;;;;;;;;;4999363;28;20450;-79
2021/10/27 05:57:08;;;;;;;5.50;4.40;;;;;;;;;;4996760;28;20167;-79
2021/10/27 05:59:34;;;;;;;7.00;4.53;;;;;;;;;;4995231;28;20522;-79
2021/10/27 06:02:00;;;;;;;7.55;4.60;;;;;;;;;;4996069;28;20686;-78
2021/10/27 06:04:27;;;;;;;7.68;4.88;;;;;;;;;;4996449;28;20694;-80
2021/10/27 06:06:52;;;;;;;5.32;4.22;;;;;;;;;;4996525;28;20582;-78
2021/10/27 06:09:19;;;;;;;5.77;4.37;;;;;;;;;;4996355;28;20182;-79
2021/10/27 06:11:45;;;;;;;5.40;4.35;;;;;;;;;;4994858;28;20462;-80
2021/10/27 06:14:12;;;;;;;5.55;4.60;;;;;;;;;;4996253;28;20682;-80
2021/10/27 06:16:38;;;;;;;11.00;4.75;;;;;;;;;;4996315;28;20636;-78
2021/10/27 06:19:04;;;;;;;9.23;5.60;;;;;;;;;;4996149;28;20176;-78
2021/10/27 06:21:30;;;;;;;6.85;4.55;;;;;;;;;;4994609;28;20206;-80
2021/10/27 06:23:56;;;;;;;8.32;5.10;;;;;;;;;;4994851;28;20542;-81
2021/10/27 06:26:23;;;;;;;9.63;4.82;;;;;;;;;;4994724;28;20183;-81
2021/10/27 06:31:24;;;;;;;7.28;5.13;;;;;;;;;;4995694;28;20203;-79
2021/10/27 06:36:56;;;;;;;6.60;4.97;;;;;;;;;;4996003;28;20187;-80
2021/10/27 06:47:36;;;;;;;5.50;4.50;;;;;;;;;;4995980;28;20193;-80
2021/10/27 06:50:02;;;;;;;6.03;5.37;;;;;;;;;;4994274;28;20180;-78
2021/10/27 06:52:28;;;;;;;8.80;5.15;;;;;;;;;;4993788;28;20866;-80
2021/10/27 06:54:54;;;;;;;6.37;5.30;;;;;;;;;;4977872;28;20306;-80
2021/10/27 06:57:24;;;;;;;5.93;4.95;;;;;;;;;;4995205;28;20395;-78
2021/10/27 06:59:54;;;;;;;8.40;5.05;;;;;;;;;;4995366;28;20537;-80
2021/10/27 07:03:05;;;;;;;11.45;5.15;;;;;;;;;;4993680;28;20214;-79
2021/10/27 07:16:02;;;;;;;8.70;4.90;;;;;;;;;;4995047;28;20206;-79
2021/10/27 07:18:30;;;;;;;6.88;4.97;;;;;;;;;;4994117;28;20628;-80
2021/10/27 07:20:56;;;;;;;7.00;4.88;;;;;;;;;;4994663;28;20234;-81
2021/10/27 07:23:22;;;;;;;5.50;4.03;;;;;;;;;;4994712;28;20195;-80
2021/10/27 07:25:56;;;;;;;8.70;5.80;;;;;;;;;;4995105;28;20198;-81
2021/10/27 07:28:22;;;;;;;5.75;4.22;;;;;;;;;;4994916;28;20418;-81
2021/10/27 07:30:48;;;;;;;7.03;4.30;;;;;;;;;;4977241;28;20326;-81
2021/10/27 07:33:15;;;;;;;4.80;4.17;;;;;;;;;;4977148;28;20477;-79
2021/10/27 07:35:47;;;;;;;4.97;4.07;;;;;;;;;;4994721;28;20469;-81
2021/10/27 07:40:58;;;;;;;8.20;3.20;;;;;;;;;;4994643;28;20198;-79
2021/10/27 07:43:27;;;;;;;4.63;3.50;;;;;;;;;;4993179;28;20489;-80
2021/10/27 07:45:54;;;;;;;3.57;3.27;;;;;;;;;;4994492;28;20422;-79
2021/10/27 07:48:20;;;;;;;4.60;2.93;;;;;;;;;;4993208;28;20424;-81
2021/10/27 07:50:47;;;;;;;4.60;3.30;;;;;;;;;;4993126;28;20461;-80
2021/10/27 07:53:14;;;;;;;4.90;3.33;;;;;;;;;;4993422;28;20438;-79
2021/10/27 07:55:42;;;;;;;6.63;3.07;;;;;;;;;;4994161;28;20458;-79
2021/10/27 07:58:09;;;;;;;4.95;2.75;;;;;;;;;;4994311;28;20776;-79
2021/10/27 08:00:36;;;;;;;6.78;2.50;;;;;;;;;;4994314;28;20207;-78
2021/10/27 08:03:03;;;;;;;3.80;2.70;;;;;;;;;;4993972;28;20192;-79
2021/10/27 08:05:31;;;;;;;3.90;2.83;;;;;;;;;;4977012;28;20422;-80
2021/10/27 08:07:57;;;;;;;5.00;3.03;;;;;;;;;;4994063;28;20415;-78
2021/10/27 08:10:24;;;;;;;8.33;4.20;;;;;;;;;;4994160;28;20403;-79
2021/10/27 08:12:50;;;;;;;4.80;2.90;;;;;;;;;;4992547;28;20804;-81
2021/10/27 08:15:18;;;;;;;3.50;2.60;;;;;;;;;;4994043;28;20893;-79
2021/10/27 08:17:44;;;;;;;2.87;2.57;;;;;;;;;;4994202;28;20773;-82
2021/10/27 08:20:12;;;;;;;2.97;2.53;;;;;;;;;;4994175;28;20406;-80
2021/10/27 08:22:39;;;;;;;5.20;3.03;;;;;;;;;;4993658;28;20431;-79
2021/10/27 08:25:09;;;;;;;8.17;2.83;;;;;;;;;;4992779;28;20419;-78
2021/10/27 08:27:37;;;;;;;3.70;3.07;;;;;;;;;;4992718;28;20453;-80
2021/10/27 08:30:08;;;;;;;6.90;3.50;;;;;;;;;;4993871;28;20437;-78
2021/10/27 08:32:49;;;;;;;6.30;3.07;;;;;;;;;;4993385;28;20468;-79
2021/10/27 08:35:15;;;;;;;5.20;3.13;;;;;;;;;;4992646;28;20480;-79
2021/10/27 08:37:46;;;;;;;8.93;3.43;;;;;;;;;;4993748;28;20851;-78
2021/10/27 08:40:12;;;;;;;3.13;2.63;;;;;;;;;;4992714;28;20915;-78
2021/10/27 08:42:41;;;;;;;5.33;3.37;;;;;;;;;;4992074;28;20534;-80
2021/10/27 08:45:07;;;;;;;2.97;2.67;;;;;;;;;;4993653;28;20411;-79
2021/10/27 08:47:33;;;;;;;5.77;2.90;;;;;;;;;;4976485;28;20459;-78
2021/10/27 08:49:59;;;;;;;6.80;2.87;;;;;;;;;;4992468;28;20397;-78
2021/10/27 08:52:26;;;;;;;3.47;2.73;;;;;;;;;;4993396;28;20465;-79
2021/10/27 08:54:52;;;;;;;4.13;3.03;;;;;;;;;;4992496;28;20477;-78
2021/10/27 08:57:19;;;;;;;4.97;2.90;;;;;;;;;;4992488;28;20553;-80
2021/10/27 09:16:26;;;;;;;4.97;2.97;;;;;;;;;;4997517;28;20411;-79
2021/10/27 10:04:01;;;;;;;4.73;2.33;;;;;;;;;;4996842;28;20409;-80
2021/10/27 10:05:04;;;;;;;3.33;1.97;;;;;;;;;;4996375;28;20410;-78
2021/10/27 10:07:30;;;;;;;3.67;2.43;;;;;;;;;;4995272;28;20400;-80
2021/10/27 10:09:57;;;;;;;3.50;2.07;;;;;;;;;;4995048;28;20425;-79
2021/10/27 10:12:23;;;;;;;5.00;2.30;;;;;;;;;;4995833;28;20432;-80
2021/10/27 10:14:50;;;;;;;1.60;1.30;;;;;;;;;;4994415;28;20821;-78
2021/10/27 10:17:16;;;;;;;2.50;1.60;;;;;;;;;;4995095;28;20442;-79
2021/10/27 10:19:43;;;;;;;4.87;1.83;;;;;;;;;;4994984;28;20392;-79
2021/10/27 10:22:28;;;;;;;4.33;2.00;;;;;;;;;;4994553;28;20442;-80
2021/10/27 10:24:55;;;;;;;4.00;1.77;;;;;;;;;;4996179;28;20385;-80
2021/10/27 10:27:41;;;;;;;2.23;1.83;;;;;;;;;;4994850;28;20423;-78
2021/10/27 10:30:32;;;;;;;4.13;1.73;;;;;;;;;;4996005;28;20640;-79
2021/10/27 10:33:06;;;;;;;2.50;1.90;;;;;;;;;;4988845;28;20826;-77
2021/10/27 10:35:44;;;;;;;5.40;2.10;;;;;;;;;;4994844;28;20490;-79
2021/10/27 10:57:30;;;;;;;3.20;1.50;;;;;;;;;;4995673;28;20402;-78
2021/10/27 11:25:14;;;;;;;4.73;1.57;;;;;;;;;;4993787;28;20415;-79
2021/10/27 11:38:37;;;;;;;5.23;1.60;;;;;;;;;;4994115;28;20452;-79
2021/10/27 11:43:56;;;;;;;3.00;1.33;;;;;;;;;;4994961;28;20407;-79
2021/10/27 11:46:27;;;;;;;3.63;1.40;;;;;;;;;;4993286;28;20389;-78
2021/10/27 11:48:59;;;;;;;2.40;1.20;;;;;;;;;;4994526;28;20427;-78
2021/10/27 11:51:25;;;;;;;2.90;1.40;;;;;;;;;;4992719;28;20443;-79
2021/10/27 11:53:51;;;;;;;2.20;1.60;;;;;;;;;;4993074;28;20797;-79
2021/10/27 11:56:21;;;;;;;2.70;1.23;;;;;;;;;;4994397;28;20505;-78
2021/10/27 11:59:00;;;;;;;5.00;1.33;;;;;;;;;;4994404;28;20431;-79
2021/10/27 12:01:33;;;;;;;3.50;1.20;;;;;;;;;;4993886;28;20437;-78
2021/10/27 12:04:04;;;;;;;2.30;1.27;;;;;;;;;;4994326;28;20885;-79
2021/10/27 12:06:36;;;;;;;3.53;1.37;;;;;;;;;;4994323;28;20942;-80
2021/10/27 12:09:29;;;;;;;4.00;1.57;;;;;;;;;;4994274;28;20411;-80
2021/10/27 12:18:00;;;;;;;1.47;1.00;;;;;;;;;;4994050;28;20429;-80
2021/10/27 12:20:36;;;;;;;4.63;1.77;;;;;;;;;;4993850;28;20475;-77
2021/10/27 12:23:03;;;;;;;4.03;1.10;;;;;;;;;;4992551;28;20438;-79
2021/10/27 12:25:30;;;;;;;2.83;1.30;;;;;;;;;;4992638;28;20783;-80
2021/10/27 12:28:03;;;;;;;1.93;1.03;;;;;;;;;;4992725;28;20438;-77
2021/10/27 12:30:46;;;;;;;2.40;1.43;;;;;;;;;;4992811;28;20422;-80
2021/10/27 12:33:12;;;;;;;6.33;2.03;;;;;;;;;;4992498;28;20436;-79
2021/10/27 12:35:39;;;;;;;3.47;1.30;;;;;;;;;;4993519;28;20470;-80
2021/10/27 12:38:17;;;;;;;1.40;1.23;;;;;;;;;;4992026;28;20989;-80
2021/10/27 12:40:45;;;;;;;3.57;1.30;;;;;;;;;;4993913;28;20944;-80
2021/10/27 12:43:16;;;;;;;3.23;1.00;;;;;;;;;;4993387;28;20457;-80
2021/10/27 12:45:43;;;;;;;5.80;1.10;;;;;;;;;;4993642;28;20401;-79
2021/10/27 12:48:10;;;;;;;4.10;1.10;;;;;;;;;;4993734;28;20420;-80
2021/10/27 12:50:38;;;;;;;2.63;1.20;;;;;;;;;;4993770;28;20810;-78
2021/10/27 12:53:06;;;;;;;2.80;1.00;;;;;;;;;;4991853;28;20426;-79
2021/10/27 12:55:40;;;;;;;3.60;1.57;;;;;;;;;;4992229;28;20454;-79
2021/10/27 12:58:12;;;;;;;3.97;1.30;;;;;;;;;;4993801;28;20411;-78
2021/10/27 13:01:11;;;;;;;2.20;1.20;;;;;;;;;;4993644;28;20420;-78
2021/10/27 13:08:53;;;;;;;4.10;1.27;;;;;;;;;;4993654;28;20378;-77
2021/10/27 13:11:34;;;;;;;3.00;1.33;;;;;;;;;;4993194;28;20381;-79
2021/10/27 13:19:27;;;;;;;2.53;1.33;;;;;;;;;;4992542;28;20777;-78
2021/10/27 13:30:14;;;;;;;3.80;1.50;;;;;;;;;;4993392;28;20485;-78
2021/10/27 13:32:54;;;;;;;2.90;1.20;;;;;;;;;;4992752;28;20799;-78
2021/10/27 13:35:21;;;;;;;3.77;1.47;;;;;;;;;;4993326;28;20460;-80
2021/10/27 13:37:48;;;;;;;4.23;1.73;;;;;;;;;;4992194;28;20421;-80
2021/10/27 13:40:15;;;;;;;2.47;1.10;;;;;;;;;;4993356;28;20407;-78
2021/10/27 13:45:22;;;;;;;1.50;1.13;;;;;;;;;;4993458;28;20944;-79
2021/10/27 13:58:45;;;;;;;3.97;1.50;;;;;;;;;;4996659;28;20409;-79
2021/10/27 14:06:45;;;;;;;3.20;1.30;;;;;;;;;;4996690;28;20426;-82
2021/10/27 14:17:55;;;;;;;3.83;2.10;;;;;;;;;;4996522;28;20418;-82
2021/10/27 14:20:22;;;;;;;3.83;1.60;;;;;;;;;;4996044;28;20414;-83
2021/10/27 15:20:06;;;;;;;2.67;1.33;;;;;;;;;;4994861;28;20416;-81
2021/10/27 15:28:06;;;;;;;2.63;1.80;;;;;;;;;;4995441;28;20961;-81
2021/10/27 15:33:40;;;;;;;3.27;1.90;;;;;;;;;;4994708;28;20405;-82
2021/10/27 15:52:13;;;;;;;5.17;2.10;;;;;;;;;;4994655;28;20428;-80
2021/10/27 15:54:42;;;;;;;4.87;1.67;;;;;;;;;;4994570;28;20493;-80
2021/10/27 15:57:10;;;;;;;3.77;2.00;;;;;;;;;;4994425;28;20388;-81
2021/10/27 15:59:36;;;;;;;2.27;1.60;;;;;;;;;;4994546;28;20407;-80
2021/10/27 16:02:02;;;;;;;3.90;2.10;;;;;;;;;;4993983;28;20421;-80
2021/10/27 16:04:28;;;;;;;2.57;2.00;;;;;;;;;;4994585;28;20394;-81
2021/10/27 16:06:55;;;;;;;5.30;2.20;;;;;;;;;;4993553;28;20909;-79
2021/10/27 16:09:26;;;;;;;4.20;1.80;;;;;;;;;;4993195;28;20410;-82
2021/10/27 16:11:52;;;;;;;3.27;1.77;;;;;;;;;;4993862;28;20488;-80
2021/10/27 16:14:23;;;;;;;4.27;1.70;;;;;;;;;;4992688;28;20456;-81
2021/10/27 16:16:50;;;;;;;3.23;1.70;;;;;;;;;;4993190;28;20882;-80
2021/10/27 16:19:16;;;;;;;3.90;1.80;;;;;;;;;;4994350;28;20418;-81
2021/10/27 16:21:42;;;;;;;3.30;1.87;;;;;;;;;;4993841;28;20430;-80
2021/10/27 16:24:08;;;;;;;5.13;1.97;;;;;;;;;;4994317;28;20386;-82
2021/10/27 16:26:34;;;;;;;3.50;1.70;;;;;;;;;;4994336;28;20465;-79
2021/10/27 16:29:01;;;;;;;3.63;1.77;;;;;;;;;;4994632;28;20407;-79
2021/10/27 16:31:27;;;;;;;2.37;1.47;;;;;;;;;;4993583;28;20401;-79
2021/10/27 16:33:53;;;;;;;4.67;2.30;;;;;;;;;;4993158;28;20440;-79
2021/10/27 16:36:23;;;;;;;4.87;2.20;;;;;;;;;;4994140;28;20458;-78
2021/10/27 16:38:50;;;;;;;4.20;1.90;;;;;;;;;;4994004;28;20411;-78
2021/10/27 16:41:16;;;;;;;3.37;2.00;;;;;;;;;;4976592;28;20500;-80
2021/10/27 16:43:44;;;;;;;5.63;2.20;;;;;;;;;;4993764;28;20900;-78
2021/10/27 16:46:10;;;;;;;5.60;2.10;;;;;;;;;;4993819;28;20479;-79
2021/10/27 16:48:36;;;;;;;4.53;2.00;;;;;;;;;;4992509;28;20418;-79
2021/10/27 16:51:03;;;;;;;4.80;2.00;;;;;;;;;;4993501;28;20480;-77
2021/10/27 16:53:29;;;;;;;4.17;2.37;;;;;;;;;;4992533;28;20454;-78
2021/10/27 16:55:56;;;;;;;2.10;1.90;;;;;;;;;;4993887;28;20545;-80
2021/10/27 16:58:22;;;;;;;2.97;2.00;;;;;;;;;;4992582;28;20389;-79
2021/10/27 17:00:49;;;;;;;4.40;2.40;;;;;;;;;;4993722;28;20434;-78
2021/10/27 17:03:15;;;;;;;3.90;2.60;;;;;;;;;;4992514;28;20443;-81
2021/10/27 17:05:42;;;;;;;5.03;3.00;;;;;;;;;;4992322;28;20422;-78
2021/10/27 17:08:10;;;;;;;3.50;2.40;;;;;;;;;;4993933;28;20393;-78
2021/10/27 17:10:36;;;;;;;6.50;2.90;;;;;;;;;;4993888;28;20530;-81
2021/10/27 17:13:05;;;;;;;3.00;2.50;;;;;;;;;;4993248;28;20446;-81
2021/10/27 17:15:31;;;;;;;4.17;2.70;;;;;;;;;;4993526;28;20466;-79
2021/10/27 17:17:57;;;;;;;8.63;2.93;;;;;;;;;;4994053;28;20483;-80
2021/10/27 17:20:23;;;;;;;5.47;2.63;;;;;;;;;;4993886;28;20407;-81
2021/10/27 17:22:57;;;;;;;3.53;3.03;;;;;;;;;;4993934;28;20415;-82
2021/10/27 17:25:23;;;;;;;4.97;3.10;;;;;;;;;;4996627;28;20395;-80
2021/10/27 17:27:49;;;;;;;6.77;2.70;;;;;;;;;;4984294;28;20803;-79
2021/10/27 17:30:16;;;;;;;8.03;3.23;;;;;;;;;;4997896;28;20430;-78
2021/10/27 17:32:42;;;;;;;5.63;3.00;;;;;;;;;;4996766;28;20532;-79
2021/10/27 17:35:16;;;;;;;6.30;2.77;;;;;;;;;;4997684;28;20960;-77
2021/10/27 17:37:42;;;;;;;9.60;2.97;;;;;;;;;;4995792;28;20419;-78
2021/10/27 17:40:20;;;;;;;5.27;2.80;;;;;;;;;;4996867;28;20409;-80
2021/10/27 17:42:48;;;;;;;8.67;3.07;;;;;;;;;;4996824;28;20434;-80
2021/10/27 17:45:17;;;;;;;3.30;2.57;;;;;;;;;;4995703;28;20430;-78
2021/10/27 17:47:57;;;;;;;7.60;3.53;;;;;;;;;;4996975;28;20911;-79
2021/10/27 17:50:50;;;;;;;5.90;2.80;;;;;;;;;;4995687;28;20427;-81
2021/10/27 17:58:33;;;;;;;7.90;3.80;;;;;;;;;;4996774;28;20771;-79
2021/10/27 18:01:01;;;;;;;4.60;4.13;;;;;;;;;;4996217;28;20412;-79
2021/10/27 18:03:29;;;;;;;5.30;4.20;;;;;;;;;;4996467;28;20510;-77
2021/10/27 18:05:55;;;;;;;6.87;4.20;;;;;;;;;;4996101;28;20410;-77
2021/10/27 18:08:22;;;;;;;5.70;3.80;;;;;;;;;;4995671;28;20422;-78
2021/10/27 18:10:52;;;;;;;4.93;3.80;;;;;;;;;;4996215;28;20466;-80
2021/10/27 18:13:22;;;;;;;11.50;4.40;;;;;;;;;;4996076;28;20430;-79
2021/10/27 18:15:51;;;;;;;8.95;4.60;;;;;;;;;;4996080;28;20462;-79
2021/10/27 18:18:26;;;;;;;5.63;4.53;;;;;;;;;;4995920;28;20167;-79
2021/10/27 18:20:53;;;;;;;4.93;4.20;;;;;;;;;;4994649;28;20183;-81
2021/10/27 18:26:17;;;;;;;8.93;4.97;;;;;;;;;;4995015;28;20419;-80
2021/10/27 18:36:14;;;;;;;6.50;4.70;;;;;;;;;;4995791;28;20415;-79
2021/10/27 18:37:12;;;;;;;5.90;5.00;;;;;;;;;;4995532;28;20394;-78
2021/10/27 18:42:28;;;;;;;6.93;5.30;;;;;;;;;;4995647;28;20210;-78
2021/10/27 18:44:54;;;;;;;9.10;5.68;;;;;;;;;;4995955;28;20175;-77
2021/10/27 18:47:24;;;;;;;7.70;5.80;;;;;;;;;;4995896;28;20175;-80
2021/10/27 18:49:49;;;;;;;7.78;5.20;;;;;;;;;;4995580;28;20797;-78
2021/10/27 18:55:03;;;;;;;9.27;5.60;;;;;;;;;;4995477;28;20501;-79
2021/10/27 19:00:13;;;;;;;11.13;5.85;;;;;;;;;;4995496;28;20442;-80
2021/10/27 19:03:10;;;;;;;11.25;6.25;;;;;;;;;;4995155;28;20200;-80
2021/10/27 19:11:16;;;;;;;9.70;6.28;;;;;;;;;;4994149;28;20189;-79
2021/10/27 19:14:17;;;;;;;10.70;6.68;;;;;;;;;;4994079;28;20608;-80
2021/10/27 19:16:28;;;;;;;10.75;6.30;;;;;;;;;;4994730;28;20318;-82
2021/10/27 19:18:56;;;;;;;9.00;6.57;;;;;;;;;;4994952;28;20208;-75
2021/10/27 19:21:22;;;;;;;9.73;6.88;;;;;;;;;;4993521;28;20175;-77
2021/10/27 19:23:48;;;;;;;8.43;6.50;;;;;;;;;;4993768;28;20681;-76
2021/10/27 19:26:29;;;;;;;13.35;6.30;;;;;;;;;;4995163;28;20209;-78
2021/10/27 19:29:10;;;;;;;8.65;6.28;;;;;;;;;;4994825;28;20178;-78
2021/10/27 20:10:24;;;;;;;10.63;8.77;;;;;;;;;;4981042;28;20203;-75
2021/10/27 20:23:16;;;;;;;12.27;9.10;;;;;;;;;;4993872;28;20535;-77
2021/10/27 20:50:48;;;;;;;15.20;11.00;;;;;;;;;;4993944;28;20233;-76
2021/10/27 20:53:18;;;;;;;15.88;10.30;;;;;;;;;;4992199;28;20573;-77
2021/10/27 20:55:44;;;;;;;13.90;10.30;;;;;;;;;;4992493;28;20266;-75
2021/10/27 21:14:07;;;;;;;23.90;14.63;;;;;;;;;;4997582;28;20198;-75
2021/10/27 21:16:34;;;;;;;22.50;13.67;;;;;;;;;;4997323;28;20644;-77
2021/10/27 21:19:01;;;;;;;31.80;18.92;;;;;;;;;;4997261;28;20433;-76
2021/10/27 21:21:28;;;;;;;29.17;17.25;;;;;;;;;;4996719;28;20179;-76
2021/10/27 21:23:54;;;;;;;38.20;19.70;;;;;;;;;;4996950;28;20549;-77
2021/10/27 21:26:22;;;;;;;27.40;15.48;;;;;;;;;;4997095;28;20183;-77
2021/10/27 21:29:00;;;;;;;22.38;14.13;;;;;;;;;;4996182;28;20199;-75